createdAt,value
2018-12-15T00:00:56.336Z,12.47
2018-12-15T00:03:24.259Z,12.83
2018-12-15T00:05:51.844Z,12.20
2018-12-15T00:08:19.729Z,12.53
2018-12-15T00:10:47.305Z,12.57
2018-12-15T00:13:14.882Z,12.03
2018-12-15T00:15:42.436Z,11.80
2018-12-15T00:18:10.017Z,10.97
2018-12-15T00:20:37.588Z,12.70
2018-12-15T00:23:05.158Z,11.77
2018-12-15T00:25:32.736Z,11.17
2018-12-15T00:28:00.353Z,11.73
2018-12-15T00:30:27.953Z,11.17
2018-12-15T00:32:55.512Z,11.93
2018-12-15T00:35:23.084Z,10.40
2018-12-15T00:37:50.650Z,12.13
2018-12-15T00:40:18.231Z,12.17
2018-12-15T00:42:45.787Z,12.43
2018-12-15T00:45:13.373Z,11.53
2018-12-15T00:47:40.935Z,10.70
2018-12-15T00:50:08.525Z,11.80
2018-12-15T00:52:36.083Z,11.87
2018-12-15T00:55:03.929Z,11.57
2018-12-15T00:57:31.488Z,12.00
2018-12-15T00:59:59.073Z,11.07
2018-12-15T01:02:26.637Z,11.30
2018-12-15T01:04:54.216Z,11.20
2018-12-15T01:07:21.783Z,11.43
2018-12-15T01:09:49.356Z,10.77
2018-12-15T01:12:16.906Z,12.00
2018-12-15T01:14:44.480Z,11.60
2018-12-15T01:17:12.051Z,12.63
2018-12-15T01:19:39.625Z,11.27
2018-12-15T01:22:07.191Z,12.67
2018-12-15T01:24:34.769Z,11.70
2018-12-15T01:27:02.333Z,12.37
2018-12-15T01:29:29.908Z,10.83
2018-12-15T01:31:57.466Z,12.30
2018-12-15T01:34:25.044Z,10.83
2018-12-15T01:36:52.612Z,11.97
2018-12-15T01:39:20.201Z,12.10
2018-12-15T01:41:47.764Z,11.50
2018-12-15T01:44:15.340Z,12.20
2018-12-15T01:46:42.892Z,11.07
2018-12-15T01:49:10.480Z,12.43
2018-12-15T01:51:38.036Z,11.17
2018-12-15T01:54:05.597Z,11.27
2018-12-15T01:56:33.179Z,12.27
2018-12-15T01:59:00.752Z,11.63
2018-12-15T02:01:28.337Z,12.03
2018-12-15T02:03:55.897Z,13.30
2018-12-15T02:06:23.485Z,12.83
2018-12-15T02:08:51.055Z,12.87
2018-12-15T02:11:18.633Z,11.73
2018-12-15T02:13:46.196Z,12.20
2018-12-15T02:16:13.772Z,11.70
2018-12-15T02:18:41.337Z,12.53
2018-12-15T02:21:08.917Z,12.40
2018-12-15T02:23:36.480Z,12.67
2018-12-15T02:26:04.061Z,11.63
2018-12-15T02:28:31.624Z,12.63
2018-12-15T02:30:59.205Z,13.23
2018-12-15T02:33:26.765Z,12.50
2018-12-15T02:35:54.346Z,12.80
2018-12-15T02:38:21.904Z,12.60
2018-12-15T02:40:49.493Z,12.93
2018-12-15T02:43:17.053Z,12.33
2018-12-15T02:45:44.632Z,12.97
2018-12-15T02:48:12.196Z,11.77
2018-12-15T02:50:39.793Z,12.50
2018-12-15T02:53:07.349Z,13.30
2018-12-15T02:55:34.922Z,12.30
2018-12-15T02:58:03.480Z,12.90
2018-12-15T03:00:31.066Z,13.47
2018-12-15T03:02:58.624Z,12.40
2018-12-15T03:05:26.197Z,12.87
2018-12-15T03:07:53.758Z,13.33
2018-12-15T03:10:21.341Z,14.23
2018-12-15T03:12:48.904Z,13.47
2018-12-15T03:15:16.477Z,13.60
2018-12-15T03:17:48.925Z,13.50
2018-12-15T03:20:13.724Z,13.60
2018-12-15T03:22:41.280Z,12.93
2018-12-15T03:25:08.869Z,12.60
2018-12-15T03:27:36.434Z,13.30
2018-12-15T03:30:04.492Z,12.90
2018-12-15T03:32:32.061Z,13.07
2018-12-15T03:34:59.612Z,13.37
2018-12-15T03:37:27.188Z,13.57
2018-12-15T03:39:54.747Z,13.50
2018-12-15T03:42:22.333Z,13.03
2018-12-15T03:44:52.308Z,11.93
2018-12-15T03:47:19.897Z,13.87
2018-12-15T03:49:47.456Z,12.97
2018-12-15T03:52:15.038Z,13.37
2018-12-15T03:54:42.600Z,13.40
2018-12-15T03:57:10.180Z,13.53
2018-12-15T03:59:37.925Z,13.63
2018-12-15T04:02:06.073Z,14.77
2018-12-15T04:04:34.585Z,14.07
2018-12-15T04:07:02.161Z,15.17
2018-12-15T04:09:29.716Z,14.33
2018-12-15T04:11:57.288Z,13.23
2018-12-15T04:14:24.848Z,13.20
2018-12-15T04:16:52.433Z,14.87
2018-12-15T04:19:19.998Z,14.60
2018-12-15T04:21:47.585Z,14.90
2018-12-15T04:24:15.144Z,15.57
2018-12-15T04:26:42.720Z,13.37
2018-12-15T04:29:11.166Z,13.83
2018-12-15T04:31:38.858Z,14.10
2018-12-15T04:34:06.420Z,15.60
2018-12-15T04:36:34.009Z,14.97
2018-12-15T04:39:01.570Z,13.57
2018-12-15T04:41:29.149Z,15.67
2018-12-15T04:43:56.871Z,16.03
2018-12-15T04:46:24.452Z,14.17
2018-12-15T04:48:52.015Z,15.27
2018-12-15T04:51:19.606Z,13.90
2018-12-15T04:53:47.169Z,15.43
2018-12-15T04:56:14.750Z,14.70
2018-12-15T04:58:42.313Z,14.57
2018-12-15T05:01:09.897Z,14.20
2018-12-15T05:03:37.456Z,14.10
2018-12-15T05:06:05.032Z,14.47
2018-12-15T05:08:32.604Z,14.47
2018-12-15T05:11:00.160Z,14.33
2018-12-15T05:13:27.744Z,13.60
2018-12-15T05:15:55.300Z,13.97
2018-12-15T05:18:22.887Z,15.10
2018-12-15T05:20:50.456Z,14.50
2018-12-15T05:23:18.036Z,14.40
2018-12-15T05:25:45.592Z,15.17
2018-12-15T05:28:14.209Z,15.40
2018-12-15T05:30:41.761Z,14.87
2018-12-15T05:33:09.345Z,16.13
2018-12-15T05:35:36.904Z,15.67
2018-12-15T05:38:04.493Z,14.67
2018-12-15T05:40:32.048Z,15.10
2018-12-15T05:42:59.634Z,16.10
2018-12-15T05:45:27.193Z,14.80
2018-12-15T05:47:54.781Z,14.93
2018-12-15T05:50:22.348Z,14.70
2018-12-15T05:52:49.935Z,15.40
2018-12-15T05:55:17.492Z,16.03
2018-12-15T05:57:45.069Z,16.63
2018-12-15T06:00:12.703Z,15.27
2018-12-15T06:02:40.452Z,15.97
2018-12-15T06:05:08.606Z,16.33
2018-12-15T06:07:36.190Z,15.10
2018-12-15T06:10:04.025Z,15.40
2018-12-15T06:12:31.613Z,15.30
2018-12-15T06:14:59.174Z,14.73
2018-12-15T06:17:26.752Z,13.80
2018-12-15T06:19:54.314Z,14.73
2018-12-15T06:22:21.899Z,15.10
2018-12-15T06:24:49.484Z,14.60
2018-12-15T06:27:17.068Z,15.00
2018-12-15T06:29:44.624Z,14.77
2018-12-15T06:32:12.743Z,14.23
2018-12-15T06:34:40.307Z,14.00
2018-12-15T06:37:07.889Z,14.30
2018-12-15T06:39:35.449Z,14.00
2018-12-15T06:42:03.033Z,15.20
2018-12-15T06:44:30.601Z,15.83
2018-12-15T06:46:58.157Z,14.73
2018-12-15T06:49:26.305Z,14.90
2018-12-15T06:51:53.865Z,14.70
2018-12-15T06:54:21.436Z,14.50
2018-12-15T06:56:48.992Z,14.90
2018-12-15T06:59:16.578Z,15.53
2018-12-15T07:01:44.132Z,14.60
2018-12-15T07:04:11.713Z,15.57
2018-12-15T07:06:39.276Z,14.90
2018-12-15T07:09:06.860Z,16.07
2018-12-15T07:11:34.420Z,15.77
2018-12-15T07:14:02.001Z,16.20
2018-12-15T07:16:29.560Z,15.87
2018-12-15T07:18:57.159Z,15.17
2018-12-15T07:21:24.822Z,15.03
2018-12-15T07:23:52.405Z,15.73
2018-12-15T07:26:19.960Z,15.40
2018-12-15T07:28:47.544Z,15.93
2018-12-15T07:31:15.110Z,14.60
2018-12-15T07:33:42.693Z,16.30
2018-12-15T07:36:10.259Z,16.27
2018-12-15T07:38:37.832Z,15.87
2018-12-15T07:41:05.389Z,16.37
2018-12-15T07:43:32.960Z,16.60
2018-12-15T07:46:00.979Z,16.20
2018-12-15T07:48:28.628Z,16.13
2018-12-15T07:50:56.180Z,17.23
2018-12-15T07:53:23.768Z,16.30
2018-12-15T07:55:51.333Z,21.80
2018-12-15T07:58:18.912Z,16.40
2018-12-15T08:00:46.489Z,16.00
2018-12-15T08:03:14.072Z,16.90
2018-12-15T08:05:41.625Z,14.67
2018-12-15T08:08:09.216Z,15.10
2018-12-15T08:10:42.418Z,14.27
2018-12-15T08:13:11.969Z,13.20
2018-12-15T08:15:39.538Z,15.20
2018-12-15T08:18:07.113Z,14.10
2018-12-15T08:20:34.671Z,14.90
2018-12-15T08:23:02.224Z,13.70
2018-12-15T08:25:29.796Z,13.70
2018-12-15T08:27:57.361Z,14.67
2018-12-15T08:30:24.945Z,13.00
2018-12-15T08:32:52.506Z,14.87
2018-12-15T08:35:21.061Z,14.87
2018-12-15T08:37:48.614Z,13.87
2018-12-15T08:40:16.197Z,14.40
2018-12-15T08:42:43.747Z,14.43
2018-12-15T08:45:11.340Z,12.70
2018-12-15T08:47:38.901Z,13.43
2018-12-15T08:50:06.827Z,13.87
2018-12-15T08:52:34.729Z,13.37
2018-12-15T08:55:02.389Z,14.33
2018-12-15T08:57:30.223Z,14.70
2018-12-15T08:59:58.402Z,15.03
2018-12-15T09:02:25.960Z,14.10
2018-12-15T09:04:53.549Z,14.30
2018-12-15T09:07:21.144Z,14.07
2018-12-15T09:09:48.728Z,13.70
2018-12-15T09:12:16.612Z,13.67
2018-12-15T09:14:44.808Z,15.30
2018-12-15T09:17:12.383Z,14.80
2018-12-15T09:19:39.977Z,14.40
2018-12-15T09:22:11.350Z,14.90
2018-12-15T09:24:38.036Z,14.80
2018-12-15T09:27:05.601Z,15.77
2018-12-15T09:29:33.317Z,13.87
2018-12-15T09:32:00.893Z,15.03
2018-12-15T09:34:28.468Z,16.10
2018-12-15T09:36:56.028Z,17.80
2018-12-15T09:39:23.629Z,16.13
2018-12-15T09:41:51.628Z,16.10
2018-12-15T09:44:19.539Z,15.50
2018-12-15T09:46:48.057Z,15.93
2018-12-15T09:49:17.961Z,16.13
2018-12-15T09:51:45.225Z,14.37
2018-12-15T09:54:13.015Z,13.77
2018-12-15T09:56:40.669Z,13.53
2018-12-15T09:59:08.296Z,14.23
2018-12-15T10:01:35.965Z,13.97
2018-12-15T10:04:04.321Z,14.20
2018-12-15T10:06:31.977Z,13.63
2018-12-15T10:09:00.284Z,12.80
2018-12-15T10:11:27.863Z,14.50
2018-12-15T10:13:55.647Z,14.70
2018-12-15T10:16:23.229Z,14.20
2018-12-15T10:18:50.970Z,15.77
2018-12-15T10:21:19.176Z,13.33
2018-12-15T10:23:46.745Z,12.87
2018-12-15T10:26:14.573Z,13.70
2018-12-15T10:28:42.957Z,12.77
2018-12-15T10:34:18.415Z,14.57
2018-12-15T10:36:46.112Z,13.50
2018-12-15T10:39:13.851Z,14.23
2018-12-15T10:41:41.436Z,14.40
2018-12-15T10:44:08.997Z,13.03
2018-12-15T10:46:36.568Z,13.30
2018-12-15T10:49:04.187Z,16.37
2018-12-15T10:51:31.779Z,15.93
2018-12-15T10:53:59.336Z,13.90
2018-12-15T10:56:27.548Z,13.40
2018-12-15T10:58:55.122Z,15.10
2018-12-15T11:01:22.714Z,14.27
2018-12-15T11:03:50.469Z,14.17
2018-12-15T11:06:18.054Z,13.03
2018-12-15T11:08:45.893Z,12.03
2018-12-15T11:11:13.687Z,14.23
2018-12-15T11:13:41.268Z,13.13
2018-12-15T11:16:08.838Z,12.83
2018-12-15T11:18:36.736Z,12.87
2018-12-15T11:21:04.503Z,14.50
2018-12-15T11:23:32.090Z,12.60
2018-12-15T11:25:59.645Z,13.03
2018-12-15T11:28:27.296Z,12.80
2018-12-15T11:30:54.921Z,12.30
2018-12-15T11:33:23.334Z,12.10
2018-12-15T11:35:50.901Z,13.27
2018-12-15T11:38:18.489Z,13.00
2018-12-15T11:40:46.050Z,13.90
2018-12-15T11:43:14.544Z,14.33
2018-12-15T11:45:42.109Z,13.03
2018-12-15T11:48:09.692Z,12.40
2018-12-15T11:50:37.251Z,11.77
2018-12-15T11:53:05.153Z,12.97
2018-12-15T11:55:32.716Z,13.40
2018-12-15T11:58:00.309Z,13.00
2018-12-15T12:00:27.864Z,13.60
2018-12-15T12:02:55.469Z,12.47
2018-12-15T12:05:23.037Z,11.30
2018-12-15T12:07:50.625Z,12.10
2018-12-15T12:10:18.480Z,12.10
2018-12-15T12:12:46.056Z,12.73
2018-12-15T12:15:13.832Z,11.70
2018-12-15T12:17:41.640Z,12.83
2018-12-15T12:20:09.207Z,13.37
2018-12-15T12:22:36.789Z,12.87
2018-12-15T12:25:04.427Z,13.03
2018-12-15T12:27:32.019Z,12.73
2018-12-15T12:29:59.677Z,11.53
2018-12-15T12:32:27.478Z,11.57
2018-12-15T12:34:55.041Z,11.80
2018-12-15T12:37:22.621Z,12.50
2018-12-15T12:39:50.197Z,13.30
2018-12-15T12:42:17.774Z,11.50
2018-12-15T12:44:45.336Z,12.17
2018-12-15T12:47:13.512Z,12.47
2018-12-15T12:49:41.100Z,12.10
2018-12-15T12:52:08.841Z,13.50
2018-12-15T12:54:37.182Z,14.07
2018-12-15T12:57:07.150Z,12.90
2018-12-15T12:59:34.729Z,12.57
2018-12-15T13:02:02.507Z,13.87
2018-12-15T13:04:30.712Z,13.00
2018-12-15T13:06:58.595Z,12.77
2018-12-15T13:09:26.178Z,13.10
2018-12-15T13:11:53.953Z,13.40
2018-12-15T13:14:21.553Z,13.37
2018-12-15T13:16:49.105Z,13.30
2018-12-15T13:19:16.917Z,11.97
2018-12-15T13:21:44.480Z,13.10
2018-12-15T13:24:12.049Z,12.13
2018-12-15T13:26:39.904Z,11.47
2018-12-15T13:29:07.887Z,12.37
2018-12-15T13:31:36.056Z,13.57
2018-12-15T13:34:03.696Z,14.40
2018-12-15T13:36:32.034Z,13.70
2018-12-15T13:38:59.852Z,12.30
2018-12-15T13:41:27.724Z,13.50
2018-12-15T13:43:55.301Z,13.90
2018-12-15T13:46:23.069Z,12.40
2018-12-15T13:48:50.640Z,13.60
2018-12-15T13:51:18.824Z,13.20
2018-12-15T13:53:46.404Z,14.93
2018-12-15T13:56:13.964Z,14.63
2018-12-15T13:58:41.973Z,12.93
2018-12-15T14:01:09.747Z,20.90
2018-12-15T14:03:37.327Z,12.70
2018-12-15T14:06:05.205Z,13.57
2018-12-15T14:08:32.801Z,13.40
2018-12-15T14:11:00.389Z,15.80
2018-12-15T14:13:28.766Z,14.30
2018-12-15T14:15:57.247Z,14.70
2018-12-15T14:18:25.167Z,14.33
2018-12-15T14:20:52.735Z,14.07
2018-12-15T14:23:20.296Z,14.57
2018-12-15T14:25:48.103Z,15.20
2018-12-15T14:28:15.665Z,15.43
2018-12-15T14:30:43.528Z,15.23
2018-12-15T14:33:11.088Z,14.73
2018-12-15T14:35:38.669Z,14.23
2018-12-15T14:38:06.220Z,17.33
2018-12-15T14:40:33.793Z,16.20
2018-12-15T14:43:01.345Z,16.07
2018-12-15T14:48:00.633Z,15.33
2018-12-15T14:50:28.220Z,15.37
2018-12-15T14:52:55.836Z,14.60
2018-12-15T14:55:24.392Z,14.47
2018-12-15T14:57:52.227Z,15.47
2018-12-15T15:00:19.884Z,16.57
2018-12-15T15:02:47.646Z,16.03
2018-12-15T15:05:15.240Z,15.23
2018-12-15T15:07:42.809Z,14.50
2018-12-15T15:10:10.561Z,15.27
2018-12-15T15:12:38.121Z,15.43
2018-12-15T15:15:05.963Z,16.50
2018-12-15T15:17:33.519Z,16.30
2018-12-15T15:20:01.109Z,16.40
2018-12-15T15:22:29.285Z,15.20
2018-12-15T15:24:56.861Z,15.40
2018-12-15T15:27:24.424Z,15.33
2018-12-15T15:29:52.008Z,15.10
2018-12-15T15:32:19.705Z,16.30
2018-12-15T15:34:47.291Z,16.10
2018-12-15T15:37:15.125Z,16.63
2018-12-15T15:39:42.717Z,15.53
2018-12-15T15:42:10.558Z,14.00
2018-12-15T15:44:38.137Z,14.10
2018-12-15T15:47:05.704Z,14.10
2018-12-15T15:49:33.313Z,15.97
2018-12-15T15:52:00.876Z,14.10
2018-12-15T15:54:28.488Z,14.60
2018-12-15T15:56:56.053Z,13.80
2018-12-15T15:59:23.612Z,14.90
2018-12-15T16:01:51.235Z,15.50
2018-12-15T16:04:19.007Z,14.93
2018-12-15T16:06:46.999Z,13.60
2018-12-15T16:09:15.060Z,14.77
2018-12-15T16:11:43.116Z,13.63
2018-12-15T16:14:10.704Z,14.90
2018-12-15T16:16:38.306Z,14.80
2018-12-15T16:19:05.859Z,13.73
2018-12-15T16:21:33.437Z,14.47
2018-12-15T16:24:01.031Z,14.10
2018-12-15T16:26:28.633Z,13.13
2018-12-15T16:28:56.197Z,14.47
2018-12-15T16:31:23.784Z,13.40
2018-12-15T16:33:51.348Z,13.73
2018-12-15T16:36:18.928Z,14.07
2018-12-15T16:38:46.508Z,13.00
2018-12-15T16:41:14.103Z,13.93
2018-12-15T16:43:41.725Z,14.80
2018-12-15T16:46:09.332Z,14.80
2018-12-15T16:48:37.081Z,14.40
2018-12-15T16:51:04.673Z,12.90
2018-12-15T16:53:32.236Z,15.80
2018-12-15T16:55:59.820Z,13.87
2018-12-15T16:58:27.397Z,15.07
2018-12-15T17:00:54.973Z,15.13
2018-12-15T17:03:22.532Z,16.23
2018-12-15T17:05:50.118Z,15.67
2018-12-15T17:08:17.681Z,14.00
2018-12-15T17:10:45.256Z,14.90
2018-12-15T17:13:12.808Z,15.37
2018-12-15T17:15:40.393Z,13.43
2018-12-15T17:18:07.959Z,13.70
2018-12-15T17:20:35.544Z,13.27
2018-12-15T17:23:03.096Z,13.43
2018-12-15T17:25:30.694Z,13.57
2018-12-15T17:27:58.259Z,15.67
2018-12-15T17:30:25.815Z,13.00
2018-12-15T17:32:53.401Z,15.13
2018-12-15T17:35:20.956Z,14.67
2018-12-15T17:37:48.546Z,15.17
2018-12-15T17:40:16.127Z,15.60
2018-12-15T17:42:43.700Z,13.17
2018-12-15T17:45:11.265Z,12.70
2018-12-15T17:47:38.843Z,13.27
2018-12-15T17:50:06.752Z,13.43
2018-12-15T17:52:34.332Z,13.93
2018-12-15T17:55:02.064Z,12.30
2018-12-15T17:57:29.641Z,13.37
2018-12-15T17:59:57.209Z,12.87
2018-12-15T18:02:24.780Z,11.27
2018-12-15T18:04:52.344Z,10.30
2018-12-15T18:07:20.056Z,10.90
2018-12-15T18:09:47.609Z,11.00
2018-12-15T18:12:15.189Z,11.60
2018-12-15T18:14:42.752Z,10.90
2018-12-15T18:17:10.333Z,11.63
2018-12-15T18:19:37.957Z,10.93
2018-12-15T18:22:05.534Z,11.00
2018-12-15T18:24:33.098Z,10.60
2018-12-15T18:27:00.735Z,9.80
2018-12-15T18:29:28.293Z,11.60
2018-12-15T18:31:55.877Z,10.33
2018-12-15T18:34:23.438Z,11.40
2018-12-15T18:36:51.029Z,11.47
2018-12-15T18:39:18.588Z,10.07
2018-12-15T18:41:46.175Z,11.40
2018-12-15T18:44:13.743Z,11.03
2018-12-15T18:46:41.320Z,10.90
2018-12-15T18:49:08.942Z,11.33
2018-12-15T18:51:36.523Z,12.60
2018-12-15T18:54:04.097Z,11.67
2018-12-15T18:56:31.744Z,10.83
2018-12-15T18:58:59.473Z,11.47
2018-12-15T19:01:27.053Z,12.73
2018-12-15T19:03:54.616Z,12.33
2018-12-15T19:06:22.175Z,11.43
2018-12-15T19:08:49.753Z,13.03
2018-12-15T19:11:17.309Z,13.60
2018-12-15T19:13:44.993Z,11.40
2018-12-15T19:16:12.545Z,13.23
2018-12-15T19:18:40.121Z,13.60
2018-12-15T19:21:08.278Z,14.23
2018-12-15T19:23:35.988Z,13.47
2018-12-15T19:26:03.548Z,14.53
2018-12-15T19:28:31.826Z,15.43
2018-12-15T19:30:59.371Z,16.53
2018-12-15T19:33:26.951Z,13.80
2018-12-15T19:35:54.515Z,16.23
2018-12-15T19:38:22.114Z,14.80
2018-12-15T19:40:49.702Z,18.03
2018-12-15T19:43:17.311Z,18.13
2018-12-15T19:45:44.859Z,16.67
2018-12-15T19:48:12.449Z,16.93
2018-12-15T19:50:40.020Z,15.20
2018-12-15T19:53:07.664Z,14.87
2018-12-15T19:55:35.216Z,15.07
2018-12-15T19:58:02.797Z,15.20
2018-12-15T20:00:30.354Z,14.80
2018-12-15T20:02:57.934Z,15.63
2018-12-15T20:05:25.557Z,14.60
2018-12-15T20:07:53.223Z,16.00
2018-12-15T20:10:20.844Z,15.27
2018-12-15T20:12:49.059Z,13.90
2018-12-15T20:15:16.649Z,13.67
2018-12-15T20:17:44.232Z,12.90
2018-12-15T20:20:11.784Z,13.47
2018-12-15T20:22:39.363Z,14.23
2018-12-15T20:25:06.997Z,14.03
2018-12-15T20:27:34.589Z,12.80
2018-12-15T20:30:02.221Z,14.47
2018-12-15T20:32:29.834Z,14.07
2018-12-15T20:34:57.412Z,14.43
2018-12-15T20:37:24.993Z,14.37
2018-12-15T20:39:52.557Z,16.60
2018-12-15T20:42:20.115Z,15.30
2018-12-15T20:44:47.704Z,16.33
2018-12-15T20:47:15.261Z,14.20
2018-12-15T20:49:42.857Z,17.17
2018-12-15T20:52:10.417Z,15.67
2018-12-15T20:54:37.996Z,15.23
2018-12-15T20:57:05.573Z,14.50
2018-12-15T20:59:33.150Z,15.50
2018-12-15T21:02:00.708Z,15.80
2018-12-15T21:04:28.284Z,13.67
2018-12-15T21:06:55.835Z,13.27
2018-12-15T21:09:23.417Z,14.80
2018-12-15T21:11:50.981Z,13.50
2018-12-15T21:14:18.564Z,13.80
2018-12-15T21:16:46.121Z,14.50
2018-12-15T21:19:13.733Z,12.70
2018-12-15T21:21:41.288Z,14.80
2018-12-15T21:24:08.930Z,12.70
2018-12-15T21:26:36.489Z,13.97
2018-12-15T21:29:04.141Z,13.00
2018-12-15T21:31:31.692Z,13.83
2018-12-15T21:33:59.272Z,12.30
2018-12-15T21:36:26.824Z,12.30
2018-12-15T21:38:54.409Z,13.33
2018-12-15T21:41:21.968Z,14.43
2018-12-15T21:43:49.549Z,12.23
2018-12-15T21:46:17.109Z,14.30
2018-12-15T21:48:44.685Z,14.07
2018-12-15T21:51:12.249Z,13.80
2018-12-15T21:53:39.825Z,15.23
2018-12-15T21:56:07.377Z,14.90
2018-12-15T21:58:34.953Z,14.43
2018-12-15T22:01:02.509Z,15.93
2018-12-15T22:03:30.093Z,15.37
2018-12-15T22:05:57.652Z,14.63
2018-12-15T22:08:25.236Z,15.87
2018-12-15T22:10:52.795Z,14.33
2018-12-15T22:13:20.348Z,15.07
2018-12-15T22:15:47.923Z,14.33
2018-12-15T22:18:15.476Z,13.23
2018-12-15T22:20:43.228Z,15.57
2018-12-15T22:23:10.798Z,14.60
2018-12-15T22:25:38.697Z,13.87
2018-12-15T22:28:06.253Z,13.97
2018-12-15T22:30:33.828Z,15.97
2018-12-15T22:33:01.393Z,14.00
2018-12-15T22:35:28.964Z,14.03
2018-12-15T22:37:56.529Z,14.50
2018-12-15T22:40:24.115Z,14.83
2018-12-15T22:42:51.683Z,13.83
2018-12-15T22:45:19.272Z,13.47
2018-12-15T22:47:46.841Z,14.33
2018-12-15T22:50:14.433Z,14.30
2018-12-15T22:52:41.985Z,14.00
2018-12-15T22:55:09.560Z,13.93
2018-12-15T22:57:37.129Z,14.40
2018-12-15T23:00:05.991Z,14.93
2018-12-15T23:02:33.548Z,13.53
2018-12-15T23:05:01.123Z,14.23
2018-12-15T23:07:30.136Z,15.23
2018-12-15T23:09:57.905Z,13.40
2018-12-15T23:12:25.464Z,14.73
2018-12-15T23:14:53.045Z,13.43
2018-12-15T23:17:20.605Z,15.07
2018-12-15T23:19:48.202Z,15.47
2018-12-15T23:22:16.407Z,17.27
2018-12-15T23:24:44.180Z,14.53
2018-12-15T23:27:11.749Z,15.53
2018-12-15T23:29:39.336Z,15.70
2018-12-15T23:32:06.890Z,15.03
2018-12-15T23:34:34.465Z,14.73
2018-12-15T23:37:02.021Z,15.63
2018-12-15T23:39:29.573Z,15.03
2018-12-15T23:41:57.158Z,16.13
2018-12-15T23:44:24.725Z,15.37
2018-12-15T23:46:52.300Z,16.37
2018-12-15T23:49:19.855Z,13.07
2018-12-15T23:51:47.441Z,15.50
2018-12-15T23:54:15.004Z,15.17
2018-12-15T23:56:42.597Z,14.90
2018-12-15T23:59:10.151Z,13.90
